Time;durP1;ratioP1;P1;durP2;ratioP2;P2;SDS_P1;SDS_P2;PMS_P1;PMS_P2;Temp;Humidity;BMP_temperature;BMP_pressure;BME280_temperature;BME280_humidity;BME280_pressure;Samples;Min_cycle;Max_cycle;Signal;HPM_P1;HPM_P2
2022/09/06 00:05:49;;;;;;;4.80;2.40;;;;;;;11.56;73.48;99344.68;171232;1277;1005755;-75
2022/09/06 00:11:35;;;;;;;6.40;2.50;;;;;;;11.53;73.27;99346.05;110794;1278;1017149;-75
2022/09/06 00:17:32;;;;;;;3.80;2.30;;;;;;;11.52;73.27;99345.95;125187;1273;1016382;-75
2022/09/06 00:24:05;;;;;;;3.50;2.30;;;;;;;11.55;73.07;99341.90;211235;1274;1003981;-76
2022/09/06 00:30:34;;;;;;;6.40;2.00;;;;;;;11.56;72.70;99341.36;110758;1273;1018408;-75
2022/09/06 00:36:27;;;;;;;2.70;1.80;;;;;;;11.59;72.60;99339.02;110430;1274;1016393;-75
2022/09/06 00:42:47;;;;;;;5.00;2.00;;;;;;;11.61;72.40;99342.98;110631;1274;1017266;-74
2022/09/06 00:49:02;;;;;;;4.90;1.90;;;;;;;11.57;72.05;99338.77;110716;1273;1016885;-75
2022/09/06 01:01:13;;;;;;;2.80;1.80;;;;;;;11.54;71.47;99333.20;110628;1274;1017419;-75
2022/09/06 01:08:00;;;;;;;3.90;1.50;;;;;;;11.57;71.42;99332.64;110591;1274;1016547;-75
2022/09/06 01:14:46;;;;;;;;;;;;;;;;;;;;;
2022/09/06 01:21:13;;;;;;;3.50;1.60;;;;;;;11.52;70.83;99334.27;110288;1274;1017112;-75
2022/09/06 01:28:11;;;;;;;4.10;1.70;;;;;;;11.49;70.79;99335.98;110540;1274;1016687;-74
2022/09/06 01:34:56;;;;;;;4.20;2.00;;;;;;;11.42;70.82;99327.49;159458;1274;1016452;-75
2022/09/06 01:41:31;;;;;;;4.20;2.00;;;;;;;11.36;70.57;99321.33;140297;1274;5338627;-74
2022/09/06 01:48:25;;;;;;;3.10;2.20;;;;;;;11.39;70.51;99313.86;206635;1278;1016183;-75
2022/09/06 01:55:11;;;;;;;3.70;1.60;;;;;;;11.39;70.08;99316.27;110576;1284;1016294;-75
2022/09/06 02:01:58;;;;;;;;;;;;;;;;;;;;;
2022/09/06 02:08:12;;;;;;;3.40;1.70;;;;;;;11.16;70.28;99299.60;137112;1283;1005357;-74
2022/09/06 02:14:35;;;;;;;3.20;1.50;;;;;;;11.04;70.47;99306.27;109668;1284;1017062;-74
2022/09/06 02:21:04;;;;;;;;;;;;;;;;;;;;;
2022/09/06 02:27:08;;;;;;;;;;;;;;;;;;;;;
2022/09/06 02:33:02;;;;;;;2.40;1.10;;;;;;;10.82;71.03;99310.32;110420;1277;1016559;-74
2022/09/06 02:39:16;;;;;;;4.10;1.50;;;;;;;10.74;71.26;99303.17;110216;1277;1016511;-74
2022/09/06 02:45:14;;;;;;;3.20;1.60;;;;;;;10.69;71.38;99304.44;110408;1274;1018605;-74
2022/09/06 02:51:27;;;;;;;3.60;1.40;;;;;;;10.61;71.58;99298.73;208786;1274;1016398;-75
2022/09/06 02:57:22;;;;;;;3.70;2.00;;;;;;;10.48;71.83;99306.56;222724;1273;24487;-74
2022/09/06 03:04:38;;;;;;;4.60;2.00;;;;;;;10.35;72.16;99312.92;222324;1273;25305;-74
2022/09/06 03:10:21;;;;;;;3.00;1.80;;;;;;;10.21;72.25;99304.44;222046;1273;24167;-75
2022/09/06 03:16:57;;;;;;;;;;;;;;;;;;;;;
2022/09/06 03:23:28;;;;;;;3.40;2.00;;;;;;;9.99;72.69;99298.39;222376;1273;25361;-75
2022/09/06 03:29:42;;;;;;;4.10;1.90;;;;;;;9.90;72.99;99297.33;220206;1273;1003574;-75
2022/09/06 03:36:21;;;;;;;2.00;1.70;;;;;;;9.77;73.36;99296.44;221692;1273;22654;-75
2022/09/06 03:56:13;;;;;;;3.00;1.40;;;;;;;9.52;74.19;99297.11;222275;1272;22556;-75
2022/09/06 04:08:58;;;;;;;;;;;;;;;;;;;;;
2022/09/06 04:15:05;;;;;;;6.50;2.00;;;;;;;9.58;74.41;99293.63;222471;1273;24377;-75
2022/09/06 04:21:26;;;;;;;2.20;1.30;;;;;;;9.63;74.31;99296.79;222089;1273;24968;-74
2022/09/06 04:33:28;;;;;;;;;;;;;;;;;;;;;
2022/09/06 04:39:49;;;;;;;2.00;1.60;;;;;;;9.79;74.67;99293.61;222511;1274;22541;-74
2022/09/06 04:52:21;;;;;;;4.00;1.80;;;;;;;10.02;74.87;99314.17;110299;1276;1019279;-73
2022/09/06 05:05:34;;;;;;;4.20;1.60;;;;;;;10.50;74.66;99304.78;110349;1277;1016637;-75
2022/09/06 05:11:17;;;;;;;2.50;1.70;;;;;;;10.83;74.95;99304.95;109982;1281;1016500;-74
2022/09/06 05:16:34;;;;;;;4.20;1.60;;;;;;;11.16;74.80;99297.06;109761;1282;1017264;-76
2022/09/06 05:22:11;;;;;;;5.40;1.90;;;;;;;11.54;74.52;99287.28;110150;1277;1016323;-76
2022/09/06 05:27:35;;;;;;;7.60;1.80;;;;;;;11.92;73.98;99287.47;110154;1277;1016526;-75
2022/09/06 05:32:50;;;;;;;6.60;1.90;;;;;;;12.19;73.39;99288.91;110404;1273;1016091;-75
2022/09/06 05:38:31;;;;;;;3.00;1.80;;;;;;;12.40;72.73;99298.55;111008;1273;1016559;-76
2022/09/06 05:43:42;;;;;;;3.30;1.80;;;;;;;12.57;72.43;99297.06;110166;1273;1016183;-75
2022/09/06 05:49:17;;;;;;;3.40;1.60;;;;;;;12.73;72.10;99297.33;110142;1274;1016368;-74
2022/09/06 05:55:03;;;;;;;7.60;2.40;;;;;;;12.96;71.67;99301.26;110192;1274;1016207;-75
2022/09/06 06:00:56;;;;;;;8.00;2.40;;;;;;;13.11;71.20;99302.12;110059;1274;1018122;-75
2022/09/06 06:05:59;;;;;;;2.70;1.80;;;;;;;13.25;70.98;99306.96;110364;1273;1016681;-74
2022/09/06 06:11:01;;;;;;;5.70;2.00;;;;;;;13.37;70.81;99301.85;110106;1274;1016704;-74
2022/09/06 06:16:10;;;;;;;5.80;2.40;;;;;;;13.58;70.82;99300.17;110188;1273;1017154;-75
2022/09/06 06:21:36;;;;;;;5.90;2.20;;;;;;;13.78;70.43;99298.09;110197;1272;1016851;-74
2022/09/06 06:26:41;;;;;;;4.40;1.80;;;;;;;13.95;69.92;99303.73;110361;1273;1016551;-74
2022/09/06 06:31:44;;;;;;;3.50;1.80;;;;;;;14.14;69.01;99313.45;110174;1273;1015930;-73
2022/09/06 06:37:00;;;;;;;4.30;1.70;;;;;;;14.30;68.38;99322.41;110015;1272;1018251;-73
2022/09/06 06:42:02;;;;;;;5.90;2.40;;;;;;;14.48;68.02;99324.27;110054;1274;1017199;-73
2022/09/06 06:47:41;;;;;;;3.60;2.30;;;;;;;14.78;67.85;99332.36;110013;1273;1016625;-73
2022/09/06 06:52:44;;;;;;;6.20;2.40;;;;;;;14.95;66.95;99336.70;110051;1274;1016090;-73
2022/09/06 06:57:49;;;;;;;3.80;2.10;;;;;;;15.10;66.49;99334.68;110164;1273;1016630;-73
2022/09/06 07:02:55;;;;;;;3.80;2.00;;;;;;;15.26;66.04;99337.36;109933;1274;1018310;-72
2022/09/06 07:08:00;;;;;;;4.30;1.90;;;;;;;15.31;65.86;99330.29;110154;1273;1016195;-72
2022/09/06 07:13:08;;;;;;;3.70;1.90;;;;;;;15.29;65.47;99322.87;109953;1273;1016471;-74
2022/09/06 07:18:22;;;;;;;6.90;2.00;;;;;;;15.24;65.36;99330.11;110010;1273;1016911;-74
2022/09/06 07:23:24;;;;;;;5.30;2.40;;;;;;;15.21;65.37;99339.89;110054;1273;1017023;-74
2022/09/06 07:28:59;;;;;;;6.00;1.90;;;;;;;15.16;65.69;99342.05;110127;1274;1016525;-74
2022/09/06 07:34:31;;;;;;;4.00;2.10;;;;;;;15.12;66.06;99333.34;110199;1273;1016382;-74
2022/09/06 07:39:45;;;;;;;5.30;2.30;;;;;;;15.09;66.72;99332.11;110179;1273;1016468;-75
2022/09/06 07:45:25;;;;;;;5.40;2.40;;;;;;;15.12;67.59;99330.80;110183;1274;1017939;-75
2022/09/06 07:50:34;;;;;;;4.40;2.30;;;;;;;15.20;68.22;99336.69;110202;1274;1015934;-75
2022/09/06 07:56:04;;;;;;;4.50;2.70;;;;;;;15.32;68.45;99332.19;110011;1274;1016538;-75
2022/09/06 08:01:46;;;;;;;5.70;2.90;;;;;;;15.56;68.64;99339.17;110183;1273;1016732;-75
2022/09/06 08:07:16;;;;;;;7.60;2.70;;;;;;;15.96;68.38;99341.89;110095;1273;1017066;-75
2022/09/06 08:12:55;;;;;;;4.00;2.30;;;;;;;16.30;67.56;99338.11;109969;1273;1018561;-75
2022/09/06 08:18:28;;;;;;;5.90;1.80;;;;;;;16.46;67.22;99342.20;109992;1274;1016646;-75
2022/09/06 08:23:48;;;;;;;5.70;3.00;;;;;;;16.73;67.13;99345.39;110180;1273;1016701;-75
2022/09/06 08:29:09;;;;;;;11.30;2.50;;;;;;;16.96;66.63;99338.33;110138;1274;1017153;-74
2022/09/06 08:34:13;;;;;;;5.60;2.10;;;;;;;17.14;66.04;99329.48;109955;1273;1017551;-74
2022/09/06 08:39:40;;;;;;;8.30;4.60;;;;;;;17.26;65.67;99327.21;110154;1273;1018099;-74
2022/09/06 08:45:11;;;;;;;5.20;2.90;;;;;;;17.38;65.88;99330.69;109981;1273;1016804;-74
2022/09/06 08:50:58;;;;;;;5.30;2.40;;;;;;;17.48;65.45;99321.61;110189;1272;1018748;-75
2022/09/06 08:57:10;;;;;;;4.50;2.50;;;;;;;17.66;65.31;99319.92;203674;1273;1016466;-74
2022/09/06 09:02:45;;;;;;;3.90;2.40;;;;;;;17.83;64.94;99319.36;220380;1273;22567;-76
2022/09/06 09:08:31;;;;;;;7.50;3.10;;;;;;;18.14;65.08;99325.78;125801;1273;1018821;-74
2022/09/06 09:14:42;;;;;;;6.80;3.00;;;;;;;18.53;64.67;99317.02;110029;1273;1016865;-74
2022/09/06 09:20:07;;;;;;;3.80;2.70;;;;;;;18.81;64.10;99312.66;109913;1274;1017488;-73
2022/09/06 09:25:38;;;;;;;4.70;2.10;;;;;;;19.07;63.82;99306.16;110163;1273;1016288;-73
2022/09/06 09:30:55;;;;;;;4.00;2.40;;;;;;;19.26;63.48;99299.23;110244;1273;1016690;-75
2022/09/06 09:36:13;;;;;;;7.70;2.40;;;;;;;19.31;62.52;99289.50;110058;1273;1016660;-73
2022/09/06 09:41:51;;;;;;;8.00;3.10;;;;;;;19.50;62.34;99278.58;110271;1273;1016870;-74
2022/09/06 09:47:29;;;;;;;5.80;2.50;;;;;;;19.82;61.95;99276.87;124160;1273;1018303;-74
2022/09/06 09:52:52;;;;;;;4.70;2.70;;;;;;;20.24;61.16;99275.66;128865;1273;1015325;-76
2022/09/06 09:58:03;;;;;;;2.80;2.00;;;;;;;20.72;60.49;99267.40;117097;1273;1017139;-76
2022/09/06 10:03:56;;;;;;;4.60;2.30;;;;;;;20.93;57.92;99262.64;130242;1273;1019074;-75
2022/09/06 10:09:43;;;;;;;3.30;2.20;;;;;;;21.10;57.67;99263.90;110112;1273;1016405;-75
2022/09/06 10:14:56;;;;;;;4.10;2.00;;;;;;;21.32;56.88;99260.14;110247;1273;1019001;-76
2022/09/06 10:20:24;;;;;;;2.50;1.70;;;;;;;21.58;55.58;99260.05;109968;1273;1016902;-75
2022/09/06 10:26:03;;;;;;;2.60;1.70;;;;;;;21.63;53.78;99262.44;109793;1274;1019677;-78
2022/09/06 10:31:34;;;;;;;2.60;2.00;;;;;;;21.61;52.49;99255.22;109822;1276;1017952;-77
2022/09/06 10:36:47;;;;;;;;;;;;;;;21.71;52.08;99255.55;109853;1276;1018175;-76
2022/09/06 10:42:28;;;;;;;12.00;2.90;;;;;;;21.78;51.99;99257.27;109908;1276;1016823;-76
2022/09/06 10:47:53;;;;;;;5.60;2.00;;;;;;;21.89;51.26;99259.97;109951;1273;1017141;-76
2022/09/06 10:53:10;;;;;;;2.80;2.10;;;;;;;21.93;50.40;99261.39;110043;1273;1016559;-76
2022/09/06 10:58:37;;;;;;;2.90;2.10;;;;;;;21.98;50.27;99261.57;110309;1271;1016425;-76
2022/09/06 11:05:03;;;;;;;2.70;1.70;;;;;;;22.10;49.21;99255.09;109868;1274;1016541;-76
2022/09/06 11:11:15;;;;;;;3.40;1.80;;;;;;;22.09;48.21;99244.45;110331;1274;1016753;-79
2022/09/06 11:17:03;;;;;;;2.60;1.70;;;;;;;21.94;47.75;99247.23;218732;1273;1016500;-78
2022/09/06 11:22:57;;;;;;;3.60;2.10;;;;;;;21.90;47.77;99246.75;188066;1273;1016365;-75
2022/09/06 11:28:17;;;;;;;2.10;1.40;;;;;;;21.82;47.36;99240.33;110090;1273;1019912;-76
2022/09/06 11:34:01;;;;;;;2.80;1.90;;;;;;;21.64;46.66;99230.94;110215;1272;1018386;-76
2022/09/06 11:39:36;;;;;;;4.30;2.00;;;;;;;21.61;46.76;99220.02;110247;1273;1016931;-77
2022/09/06 11:45:42;;;;;;;7.00;2.10;;;;;;;21.73;46.72;99206.44;110035;1274;1016669;-77
2022/09/06 11:51:11;;;;;;;3.30;1.10;;;;;;;21.82;46.31;99202.23;110243;1273;1016606;-76
2022/09/06 11:57:08;;;;;;;2.70;1.60;;;;;;;21.88;45.39;99194.33;152663;1274;1017025;-77
2022/09/06 12:02:47;;;;;;;3.40;1.60;;;;;;;21.85;44.69;99188.27;220458;1274;25251;-73
2022/09/06 12:08:17;;;;;;;3.50;1.70;;;;;;;21.94;45.33;99191.92;220036;1274;23832;-72
2022/09/06 12:14:08;;;;;;;2.40;1.70;;;;;;;22.18;45.36;99187.52;190492;1274;1017727;-74
2022/09/06 12:19:48;;;;;;;8.50;2.40;;;;;;;22.37;44.88;99177.11;213145;1273;1016336;-74
2022/09/06 12:25:15;;;;;;;4.20;2.30;;;;;;;22.48;45.17;99172.82;143522;1273;1016067;-74
2022/09/06 12:30:49;;;;;;;8.70;3.90;;;;;;;22.44;44.77;99169.23;171470;1273;1016336;-72
2022/09/06 12:36:23;;;;;;;3.20;2.20;;;;;;;22.42;44.92;99169.89;109984;1274;1016435;-73
2022/09/06 12:41:35;;;;;;;3.60;1.90;;;;;;;22.47;44.94;99168.11;188647;1273;1019181;-74
2022/09/06 12:46:47;;;;;;;5.30;2.40;;;;;;;22.64;44.93;99168.71;170739;1274;1015879;-73
2022/09/06 12:52:11;;;;;;;2.70;2.30;;;;;;;22.81;44.79;99168.01;134272;1274;1017021;-73
2022/09/06 12:57:26;;;;;;;2.70;2.00;;;;;;;22.86;44.49;99164.12;220589;1273;25521;-72
2022/09/06 13:03:18;;;;;;;8.30;3.30;;;;;;;22.82;44.40;99154.29;128425;1273;1005763;-73
2022/09/06 13:08:46;;;;;;;4.00;2.10;;;;;;;22.75;44.56;99155.11;110227;1273;1016650;-72
2022/09/06 13:13:53;;;;;;;4.20;2.30;;;;;;;22.77;44.47;99143.98;110083;1273;1016899;-73
2022/09/06 13:19:24;;;;;;;4.10;2.20;;;;;;;22.72;44.11;99136.40;110059;1273;1016754;-74
2022/09/06 13:24:36;;;;;;;4.30;2.50;;;;;;;22.62;44.11;99129.33;110021;1273;1019530;-72
2022/09/06 13:29:59;;;;;;;5.00;3.60;;;;;;;22.65;44.20;99125.90;110041;1273;1016667;-73
2022/09/06 13:35:02;;;;;;;2.90;2.20;;;;;;;22.69;44.15;99124.33;110101;1273;1016700;-70
2022/09/06 13:40:48;;;;;;;4.90;2.60;;;;;;;22.74;44.37;99121.45;110356;1273;1018894;-73
2022/09/06 13:46:13;;;;;;;3.70;2.60;;;;;;;22.83;44.18;99117.73;109719;1273;1017017;-74
2022/09/06 13:51:17;;;;;;;6.30;3.00;;;;;;;23.07;44.84;99111.69;110242;1273;1016388;-73
2022/09/06 13:56:27;;;;;;;3.50;2.60;;;;;;;23.27;44.09;99112.48;110220;1274;1017781;-74
2022/09/06 14:01:51;;;;;;;5.50;2.70;;;;;;;23.25;43.74;99107.71;109968;1275;1016200;-73
2022/09/06 14:07:48;;;;;;;5.60;2.30;;;;;;;23.26;43.76;99106.77;110060;1273;1016673;-73
2022/09/06 14:13:14;;;;;;;3.40;2.20;;;;;;;23.34;43.73;99100.20;109948;1273;1016686;-74
2022/09/06 14:18:31;;;;;;;4.60;2.70;;;;;;;23.36;43.24;99097.17;110031;1273;1016706;-73
2022/09/06 14:23:42;;;;;;;7.30;3.00;;;;;;;23.39;43.60;99088.55;110139;1273;1016680;-73
2022/09/06 14:29:11;;;;;;;3.60;2.80;;;;;;;23.46;43.58;99084.84;110001;1275;1015965;-73
2022/09/06 14:34:35;;;;;;;3.40;2.60;;;;;;;23.52;43.36;99073.52;110008;1273;1016743;-73
2022/09/06 14:40:15;;;;;;;3.20;2.50;;;;;;;23.56;43.37;99073.66;110017;1273;1016037;-76
2022/09/06 14:45:24;;;;;;;2.40;2.20;;;;;;;23.43;43.15;99070.49;109947;1275;1016314;-73
2022/09/06 14:50:30;;;;;;;4.90;3.00;;;;;;;23.29;43.12;99070.27;110094;1273;1016988;-73
2022/09/06 14:55:38;;;;;;;3.20;2.30;;;;;;;23.11;43.31;99071.23;110097;1273;1018336;-73
2022/09/06 15:01:27;;;;;;;9.70;2.70;;;;;;;22.95;43.43;99073.77;110144;1273;1016303;-73
2022/09/06 15:06:47;;;;;;;5.20;2.20;;;;;;;22.72;43.55;99071.42;109984;1273;1018551;-74
2022/09/06 15:12:03;;;;;;;4.10;2.60;;;;;;;22.47;43.88;99074.79;110056;1273;1016086;-73
2022/09/06 15:17:27;;;;;;;6.60;2.50;;;;;;;22.38;44.24;99070.71;109960;1273;1016584;-73
2022/09/06 15:23:13;;;;;;;3.80;2.40;;;;;;;22.44;44.63;99066.29;109917;1273;1016586;-73
2022/09/06 15:28:51;;;;;;;2.80;1.80;;;;;;;22.44;44.44;99071.44;109868;1276;1016502;-74
2022/09/06 15:33:57;;;;;;;2.90;1.80;;;;;;;22.39;44.17;99071.20;110012;1274;1019224;-73
2022/09/06 15:39:13;;;;;;;3.60;1.90;;;;;;;22.27;44.27;99067.25;110087;1273;1016359;-73
2022/09/06 15:44:25;;;;;;;3.40;2.50;;;;;;;22.07;44.32;99071.16;110060;1273;1016178;-74
2022/09/06 15:49:35;;;;;;;6.90;2.40;;;;;;;21.96;44.78;99063.53;109767;1276;1017118;-73
2022/09/06 16:00:08;;;;;;;3.50;1.90;;;;;;;21.86;45.19;99041.19;110259;1273;1016362;-73
2022/09/06 16:05:13;;;;;;;7.50;2.30;;;;;;;21.91;45.49;99044.02;110129;1271;1016771;-72
2022/09/06 16:10:37;;;;;;;6.10;2.10;;;;;;;21.84;45.59;99039.66;109947;1274;1016606;-74
2022/09/06 16:15:41;;;;;;;5.50;2.00;;;;;;;21.65;45.64;99040.29;109977;1273;1016695;-74
2022/09/06 16:20:46;;;;;;;4.40;2.20;;;;;;;21.44;45.93;99033.87;109997;1275;1016631;-74
2022/09/06 16:26:08;;;;;;;3.10;2.10;;;;;;;21.24;46.46;99034.58;110051;1274;1016668;-74
2022/09/06 16:31:36;;;;;;;4.10;2.20;;;;;;;21.02;46.97;99032.50;109756;1274;1016722;-73
2022/09/06 16:37:06;;;;;;;4.20;1.80;;;;;;;20.74;47.43;99038.04;109983;1273;1018907;-74
2022/09/06 16:42:46;;;;;;;5.30;2.20;;;;;;;20.48;47.89;99035.08;110059;1273;1016636;-73
2022/09/06 16:48:46;;;;;;;;;;;;;;;;;;;;;
2022/09/06 16:54:32;;;;;;;4.70;1.70;;;;;;;20.04;48.79;99030.61;110079;1273;1016611;-74
2022/09/06 17:00:15;;;;;;;2.10;1.60;;;;;;;19.79;49.47;99019.87;109880;1274;1016492;-73
2022/09/06 17:05:33;;;;;;;;;;;;;;;;;;;;;
2022/09/06 17:11:23;;;;;;;;;;;;;;;;;;;;;
2022/09/06 17:17:16;;;;;;;4.50;2.10;;;;;;;19.00;50.88;99011.23;110049;1274;1016462;-74
2022/09/06 17:23:00;;;;;;;5.70;1.80;;;;;;;18.71;51.37;99010.38;109983;1273;1016611;-73
2022/09/06 17:28:57;;;;;;;5.70;2.00;;;;;;;18.46;52.22;99009.52;110009;1274;1016987;-73
2022/09/06 17:35:14;;;;;;;6.40;2.30;;;;;;;18.21;53.05;99020.52;109885;1276;1016570;-73
2022/09/06 17:41:07;;;;;;;6.00;2.60;;;;;;;17.98;53.97;99028.52;109978;1273;1016373;-74
2022/09/06 17:53:22;;;;;;;9.70;3.40;;;;;;;17.52;55.29;99031.37;110053;1274;1016634;-74
2022/09/06 17:59:37;;;;;;;;;;;;;;;;;;;;;
2022/09/06 18:05:42;;;;;;;;;;;;;;;;;;;;;
2022/09/06 18:17:50;;;;;;;4.80;2.60;;;;;;;16.68;57.10;99034.64;109872;1274;1016583;-73
2022/09/06 18:22:55;;;;;;;4.60;2.70;;;;;;;16.52;57.41;99034.45;110067;1274;1016017;-73
2022/09/06 18:28:14;;;;;;;5.70;2.60;;;;;;;16.35;57.76;99027.68;109932;1274;1018586;-74
2022/09/06 18:33:38;;;;;;;7.50;3.10;;;;;;;16.16;58.29;99035.98;109900;1274;1019524;-74
2022/09/06 18:38:48;;;;;;;9.90;2.80;;;;;;;16.02;58.78;99044.84;110122;1274;1016666;-74
2022/09/06 18:43:56;;;;;;;6.80;3.00;;;;;;;15.91;59.13;99046.39;109915;1274;1019101;-74
2022/09/06 18:48:59;;;;;;;6.00;2.80;;;;;;;15.82;59.36;99048.28;109880;1275;1017299;-74
2022/09/06 18:54:01;;;;;;;7.80;3.60;;;;;;;15.75;59.76;99046.73;110023;1274;1016315;-73
2022/09/06 18:59:51;;;;;;;11.90;3.10;;;;;;;15.67;59.89;99054.38;109887;1274;1016751;-74
2022/09/06 19:06:17;;;;;;;6.60;2.80;;;;;;;15.57;60.09;99048.92;109945;1274;1018618;-73
2022/09/06 19:11:53;;;;;;;6.20;2.70;;;;;;;15.47;60.32;99040.73;109875;1274;1016474;-73
2022/09/06 19:16:55;;;;;;;6.30;3.00;;;;;;;15.39;60.55;99031.42;171728;1274;1018791;-74
2022/09/06 19:22:23;;;;;;;6.50;3.20;;;;;;;15.31;60.79;99029.71;220208;1274;22694;-74
2022/09/06 19:27:49;;;;;;;6.50;3.40;;;;;;;15.18;61.15;99024.98;220039;1274;22587;-74
2022/09/06 19:33:13;;;;;;;10.60;4.00;;;;;;;15.05;61.59;99023.69;220260;1274;23952;-74
2022/09/06 19:38:58;;;;;;;7.60;4.20;;;;;;;14.91;61.78;99016.98;220172;1274;22535;-73
2022/09/06 19:44:35;;;;;;;7.80;4.30;;;;;;;14.77;61.83;99015.13;220276;1274;23757;-75
2022/09/06 19:51:08;;;;;;;;;;;;;;;;;;;;;
2022/09/06 19:56:38;;;;;;;9.50;4.10;;;;;;;14.53;62.26;99001.91;220437;1274;25261;-75
2022/09/06 20:02:12;;;;;;;9.00;4.60;;;;;;;14.43;62.66;98998.40;220444;1274;22743;-73
2022/09/06 20:13:21;;;;;;;11.40;3.90;;;;;;;14.20;63.39;98986.09;220647;1274;25377;-73
2022/09/06 20:18:46;;;;;;;6.40;3.80;;;;;;;14.13;63.62;98976.55;220385;1274;22555;-76
2022/09/06 20:24:20;;;;;;;8.00;4.00;;;;;;;14.01;63.72;98986.96;220194;1274;22624;-75
2022/09/06 20:30:19;;;;;;;7.70;4.30;;;;;;;13.89;64.04;98994.63;220436;1273;23559;-73
2022/09/06 20:35:28;;;;;;;7.00;3.70;;;;;;;13.76;64.19;98992.02;126657;1273;1016628;-73
2022/09/06 20:40:55;;;;;;;9.70;4.10;;;;;;;13.64;64.46;98994.95;109866;1274;1016625;-73
2022/09/06 20:46:42;;;;;;;6.70;3.60;;;;;;;13.54;64.73;99003.70;110010;1274;1016265;-74
2022/09/06 20:52:42;;;;;;;6.60;3.60;;;;;;;13.43;65.14;99007.90;109890;1273;1016698;-73
2022/09/06 20:58:28;;;;;;;7.90;3.40;;;;;;;13.40;65.30;99005.95;109994;1273;1016689;-73
2022/09/06 21:03:37;;;;;;;6.90;2.50;;;;;;;13.43;65.15;99003.33;110048;1273;1016457;-73
2022/09/06 21:08:42;;;;;;;7.70;2.80;;;;;;;13.49;65.04;98999.77;109914;1273;1018211;-74
2022/09/06 21:14:21;;;;;;;4.30;2.50;;;;;;;13.59;64.87;99001.47;109850;1273;1016638;-74
2022/09/06 21:19:35;;;;;;;4.70;2.40;;;;;;;13.80;64.62;98995.15;109913;1273;1017118;-74
2022/09/06 21:25:31;;;;;;;7.10;2.40;;;;;;;13.96;64.22;98982.36;109939;1273;1016693;-74
2022/09/06 21:31:33;;;;;;;;;;;;;;;;;;;;;
2022/09/06 21:36:37;;;;;;;6.10;2.30;;;;;;;14.23;63.32;98972.44;110106;1273;1016623;-73
2022/09/06 21:41:53;;;;;;;5.20;2.30;;;;;;;14.31;62.88;98974.02;109891;1273;1016608;-73
2022/09/06 21:47:10;;;;;;;5.30;2.50;;;;;;;14.31;62.54;98974.08;184440;1273;1016280;-74
2022/09/06 21:52:18;;;;;;;8.70;3.00;;;;;;;14.27;62.46;98972.18;220416;1273;22588;-75
2022/09/06 21:57:37;;;;;;;3.40;2.30;;;;;;;14.18;62.34;98970.66;220358;1273;22664;-73
2022/09/06 22:02:53;;;;;;;5.10;2.30;;;;;;;14.06;62.58;98971.66;220291;1274;24339;-73
2022/09/06 22:08:14;;;;;;;4.80;2.20;;;;;;;13.94;62.70;98974.96;220360;1273;24510;-75
2022/09/06 22:13:19;;;;;;;6.40;2.20;;;;;;;13.81;63.05;98970.20;220379;1273;22769;-74
2022/09/06 22:18:30;;;;;;;5.50;2.20;;;;;;;13.68;63.07;98957.56;220333;1273;23246;-73
2022/09/06 22:23:47;;;;;;;5.00;2.00;;;;;;;13.58;63.23;98956.02;220358;1273;25260;-74
2022/09/06 22:28:56;;;;;;;5.50;2.30;;;;;;;13.45;63.34;98957.34;220237;1273;24225;-72
2022/09/06 22:33:59;;;;;;;5.90;1.90;;;;;;;13.31;63.46;98961.59;220290;1273;22574;-75
2022/09/06 22:39:10;;;;;;;3.90;1.90;;;;;;;13.20;63.73;98957.66;220323;1273;22547;-75
2022/09/06 22:44:17;;;;;;;4.00;2.40;;;;;;;13.05;63.76;98953.02;220239;1273;23151;-73
2022/09/06 22:49:27;;;;;;;5.90;2.10;;;;;;;12.90;63.99;98951.11;220058;1274;22578;-73
2022/09/06 22:54:34;;;;;;;5.60;2.40;;;;;;;12.77;64.34;98957.91;220372;1273;22570;-74
2022/09/06 23:00:19;;;;;;;4.70;2.10;;;;;;;12.66;64.48;98956.14;218394;1273;1003262;-74
2022/09/06 23:05:30;;;;;;;6.80;2.30;;;;;;;12.63;64.72;98954.05;219935;1273;1003040;-74
2022/09/06 23:10:56;;;;;;;5.80;2.10;;;;;;;12.62;64.98;98956.23;219809;1273;1002928;-74
2022/09/06 23:16:25;;;;;;;2.80;1.60;;;;;;;12.64;65.03;98951.83;220569;1273;22730;-73
2022/09/06 23:22:19;;;;;;;2.70;1.70;;;;;;;12.70;65.16;98945.48;220776;1273;22675;-73
2022/09/06 23:27:51;;;;;;;3.20;1.80;;;;;;;12.74;65.08;98946.38;220656;1272;22625;-73
2022/09/06 23:33:36;;;;;;;3.30;1.80;;;;;;;12.78;65.03;98939.07;220393;1274;22569;-73
2022/09/06 23:39:14;;;;;;;4.10;1.80;;;;;;;12.79;64.94;98935.02;220590;1274;24431;-73
2022/09/06 23:44:59;;;;;;;2.10;1.50;;;;;;;12.74;64.78;98924.52;220360;1273;22539;-74
2022/09/06 23:50:28;;;;;;;2.70;1.90;;;;;;;12.70;64.73;98916.51;220655;1273;25353;-74
2022/09/06 23:56:04;;;;;;;2.50;1.80;;;;;;;12.63;64.76;98911.19;220613;1273;22557;-74
